sensor_id;sensor_type;location;lat;lon;timestamp;pressure;altitude;pressure_sealevel;temperature
71564;BMP180;59391;52.504;13.438;2023-04-24T00:00:37;99958.00;;;16.60
71564;BMP180;59391;52.504;13.438;2023-04-24T00:03:06;99959.00;;;16.70
71564;BMP180;59391;52.504;13.438;2023-04-24T00:05:35;99954.00;;;16.70
71564;BMP180;59391;52.504;13.438;2023-04-24T00:08:00;99947.00;;;16.70
71564;BMP180;59391;52.504;13.438;2023-04-24T00:10:26;99944.00;;;16.70
71564;BMP180;59391;52.504;13.438;2023-04-24T00:12:51;99950.00;;;16.70
71564;BMP180;59391;52.504;13.438;2023-04-24T00:15:17;99939.00;;;16.70
71564;BMP180;59391;52.504;13.438;2023-04-24T00:17:43;99943.00;;;16.60
71564;BMP180;59391;52.504;13.438;2023-04-24T00:20:09;99929.00;;;16.60
71564;BMP180;59391;52.504;13.438;2023-04-24T00:22:35;99937.00;;;16.60
71564;BMP180;59391;52.504;13.438;2023-04-24T00:25:01;99933.00;;;16.60
71564;BMP180;59391;52.504;13.438;2023-04-24T00:27:27;99922.00;;;16.60
71564;BMP180;59391;52.504;13.438;2023-04-24T00:29:52;99922.00;;;16.60
71564;BMP180;59391;52.504;13.438;2023-04-24T00:32:18;99911.00;;;16.60
71564;BMP180;59391;52.504;13.438;2023-04-24T00:34:44;99910.00;;;16.60
71564;BMP180;59391;52.504;13.438;2023-04-24T00:37:10;99903.00;;;16.50
71564;BMP180;59391;52.504;13.438;2023-04-24T00:39:37;99906.00;;;16.50
71564;BMP180;59391;52.504;13.438;2023-04-24T00:42:02;99906.00;;;16.50
71564;BMP180;59391;52.504;13.438;2023-04-24T00:44:28;99903.00;;;16.50
71564;BMP180;59391;52.504;13.438;2023-04-24T00:46:55;99894.00;;;16.50
71564;BMP180;59391;52.504;13.438;2023-04-24T00:49:21;99886.00;;;16.50
71564;BMP180;59391;52.504;13.438;2023-04-24T00:51:47;99894.00;;;16.50
71564;BMP180;59391;52.504;13.438;2023-04-24T00:54:15;99885.00;;;16.40
71564;BMP180;59391;52.504;13.438;2023-04-24T00:56:42;99880.00;;;16.40
71564;BMP180;59391;52.504;13.438;2023-04-24T00:59:08;99878.00;;;16.40
71564;BMP180;59391;52.504;13.438;2023-04-24T01:01:35;99874.00;;;16.40
71564;BMP180;59391;52.504;13.438;2023-04-24T01:04:02;99874.00;;;16.40
71564;BMP180;59391;52.504;13.438;2023-04-24T01:06:29;99864.00;;;16.40
71564;BMP180;59391;52.504;13.438;2023-04-24T01:09:00;99863.00;;;16.30
71564;BMP180;59391;52.504;13.438;2023-04-24T01:11:26;99878.00;;;16.30
71564;BMP180;59391;52.504;13.438;2023-04-24T01:13:52;99886.00;;;16.30
71564;BMP180;59391;52.504;13.438;2023-04-24T01:16:18;99883.00;;;16.30
71564;BMP180;59391;52.504;13.438;2023-04-24T01:18:46;99883.00;;;16.30
71564;BMP180;59391;52.504;13.438;2023-04-24T01:21:15;99885.00;;;16.30
71564;BMP180;59391;52.504;13.438;2023-04-24T01:23:45;99881.00;;;16.30
71564;BMP180;59391;52.504;13.438;2023-04-24T01:26:13;99879.00;;;16.30
71564;BMP180;59391;52.504;13.438;2023-04-24T01:28:39;99880.00;;;16.30
71564;BMP180;59391;52.504;13.438;2023-04-24T01:31:05;99876.00;;;16.20
71564;BMP180;59391;52.504;13.438;2023-04-24T01:33:31;99880.00;;;16.20
71564;BMP180;59391;52.504;13.438;2023-04-24T01:35:57;99877.00;;;16.20
71564;BMP180;59391;52.504;13.438;2023-04-24T01:38:23;99876.00;;;16.20
71564;BMP180;59391;52.504;13.438;2023-04-24T01:40:51;99867.00;;;16.20
71564;BMP180;59391;52.504;13.438;2023-04-24T01:43:16;99867.00;;;16.20
71564;BMP180;59391;52.504;13.438;2023-04-24T01:45:42;99874.00;;;16.20
71564;BMP180;59391;52.504;13.438;2023-04-24T01:48:08;99863.00;;;16.20
71564;BMP180;59391;52.504;13.438;2023-04-24T01:50:34;99858.00;;;16.20
71564;BMP180;59391;52.504;13.438;2023-04-24T01:52:59;99858.00;;;16.10
71564;BMP180;59391;52.504;13.438;2023-04-24T01:55:25;99856.00;;;16.10
71564;BMP180;59391;52.504;13.438;2023-04-24T01:57:55;99850.00;;;16.10
71564;BMP180;59391;52.504;13.438;2023-04-24T02:00:21;99844.00;;;16.10
71564;BMP180;59391;52.504;13.438;2023-04-24T02:02:46;99848.00;;;16.10
71564;BMP180;59391;52.504;13.438;2023-04-24T02:05:12;99843.00;;;16.10
71564;BMP180;59391;52.504;13.438;2023-04-24T02:07:37;99844.00;;;16.10
71564;BMP180;59391;52.504;13.438;2023-04-24T02:10:04;99840.00;;;16.10
71564;BMP180;59391;52.504;13.438;2023-04-24T02:12:30;99841.00;;;16.10
71564;BMP180;59391;52.504;13.438;2023-04-24T02:14:56;99827.00;;;16.10
71564;BMP180;59391;52.504;13.438;2023-04-24T02:17:21;99828.00;;;16.10
71564;BMP180;59391;52.504;13.438;2023-04-24T02:19:48;99833.00;;;16.10
71564;BMP180;59391;52.504;13.438;2023-04-24T02:22:13;99837.00;;;16.10
71564;BMP180;59391;52.504;13.438;2023-04-24T02:24:39;99827.00;;;16.10
71564;BMP180;59391;52.504;13.438;2023-04-24T02:27:05;99826.00;;;16.10
71564;BMP180;59391;52.504;13.438;2023-04-24T02:29:31;99826.00;;;16.10
71564;BMP180;59391;52.504;13.438;2023-04-24T02:31:57;99832.00;;;16.10
71564;BMP180;59391;52.504;13.438;2023-04-24T02:34:22;99832.00;;;16.20
71564;BMP180;59391;52.504;13.438;2023-04-24T02:36:48;99832.00;;;16.20
71564;BMP180;59391;52.504;13.438;2023-04-24T02:39:14;99833.00;;;16.20
71564;BMP180;59391;52.504;13.438;2023-04-24T02:41:44;99837.00;;;16.00
71564;BMP180;59391;52.504;13.438;2023-04-24T02:44:09;99832.00;;;16.20
71564;BMP180;59391;52.504;13.438;2023-04-24T02:46:35;99825.00;;;16.20
71564;BMP180;59391;52.504;13.438;2023-04-24T02:49:01;99828.00;;;16.20
71564;BMP180;59391;52.504;13.438;2023-04-24T02:51:26;99822.00;;;16.30
71564;BMP180;59391;52.504;13.438;2023-04-24T02:53:52;99831.00;;;16.30
71564;BMP180;59391;52.504;13.438;2023-04-24T02:56:18;99827.00;;;16.30
71564;BMP180;59391;52.504;13.438;2023-04-24T02:58:43;99823.00;;;16.30
71564;BMP180;59391;52.504;13.438;2023-04-24T03:01:09;99824.00;;;16.30
71564;BMP180;59391;52.504;13.438;2023-04-24T03:03:36;99822.00;;;16.30
71564;BMP180;59391;52.504;13.438;2023-04-24T03:06:02;99812.00;;;16.30
71564;BMP180;59391;52.504;13.438;2023-04-24T03:08:28;99817.00;;;16.30
71564;BMP180;59391;52.504;13.438;2023-04-24T03:10:54;99818.00;;;16.40
71564;BMP180;59391;52.504;13.438;2023-04-24T03:13:19;99817.00;;;16.40
71564;BMP180;59391;52.504;13.438;2023-04-24T03:15:45;99823.00;;;16.40
71564;BMP180;59391;52.504;13.438;2023-04-24T03:18:12;99825.00;;;16.40
71564;BMP180;59391;52.504;13.438;2023-04-24T03:20:37;99827.00;;;16.50
71564;BMP180;59391;52.504;13.438;2023-04-24T03:23:03;99837.00;;;16.50
71564;BMP180;59391;52.504;13.438;2023-04-24T03:25:29;99825.00;;;16.50
71564;BMP180;59391;52.504;13.438;2023-04-24T03:27:55;99839.00;;;16.50
71564;BMP180;59391;52.504;13.438;2023-04-24T03:30:21;99834.00;;;16.50
71564;BMP180;59391;52.504;13.438;2023-04-24T03:32:46;99827.00;;;16.50
71564;BMP180;59391;52.504;13.438;2023-04-24T03:35:12;99821.00;;;16.60
71564;BMP180;59391;52.504;13.438;2023-04-24T03:37:38;99828.00;;;16.60
71564;BMP180;59391;52.504;13.438;2023-04-24T03:40:04;99824.00;;;16.60
71564;BMP180;59391;52.504;13.438;2023-04-24T03:42:31;99818.00;;;16.60
71564;BMP180;59391;52.504;13.438;2023-04-24T03:44:57;99835.00;;;16.70
71564;BMP180;59391;52.504;13.438;2023-04-24T03:47:22;99843.00;;;16.70
71564;BMP180;59391;52.504;13.438;2023-04-24T03:49:48;99838.00;;;16.60
71564;BMP180;59391;52.504;13.438;2023-04-24T03:52:13;99841.00;;;16.70
71564;BMP180;59391;52.504;13.438;2023-04-24T03:54:39;99839.00;;;16.60
71564;BMP180;59391;52.504;13.438;2023-04-24T03:57:05;99841.00;;;16.70
71564;BMP180;59391;52.504;13.438;2023-04-24T03:59:31;99830.00;;;16.60
71564;BMP180;59391;52.504;13.438;2023-04-24T04:01:56;99830.00;;;16.70
71564;BMP180;59391;52.504;13.438;2023-04-24T04:04:22;99835.00;;;16.70
71564;BMP180;59391;52.504;13.438;2023-04-24T04:06:48;99829.00;;;16.70
71564;BMP180;59391;52.504;13.438;2023-04-24T04:09:14;99835.00;;;16.70
71564;BMP180;59391;52.504;13.438;2023-04-24T04:11:40;99827.00;;;16.60
71564;BMP180;59391;52.504;13.438;2023-04-24T04:14:06;99831.00;;;16.60
71564;BMP180;59391;52.504;13.438;2023-04-24T04:16:32;99822.00;;;16.70
71564;BMP180;59391;52.504;13.438;2023-04-24T04:18:57;99824.00;;;16.70
71564;BMP180;59391;52.504;13.438;2023-04-24T04:21:24;99828.00;;;16.70
71564;BMP180;59391;52.504;13.438;2023-04-24T04:23:49;99824.00;;;16.70
71564;BMP180;59391;52.504;13.438;2023-04-24T04:26:15;99828.00;;;16.80
71564;BMP180;59391;52.504;13.438;2023-04-24T04:28:40;99821.00;;;16.80
71564;BMP180;59391;52.504;13.438;2023-04-24T04:31:06;99823.00;;;16.80
71564;BMP180;59391;52.504;13.438;2023-04-24T04:33:33;99821.00;;;16.80
71564;BMP180;59391;52.504;13.438;2023-04-24T04:35:59;99819.00;;;16.90
71564;BMP180;59391;52.504;13.438;2023-04-24T04:38:25;99821.00;;;16.90
71564;BMP180;59391;52.504;13.438;2023-04-24T04:40:55;99827.00;;;16.90
71564;BMP180;59391;52.504;13.438;2023-04-24T04:43:23;99826.00;;;16.90
71564;BMP180;59391;52.504;13.438;2023-04-24T04:45:50;99832.00;;;16.90
71564;BMP180;59391;52.504;13.438;2023-04-24T04:48:17;99840.00;;;16.90
71564;BMP180;59391;52.504;13.438;2023-04-24T04:50:44;99844.00;;;16.90
71564;BMP180;59391;52.504;13.438;2023-04-24T04:53:09;99838.00;;;17.00
71564;BMP180;59391;52.504;13.438;2023-04-24T04:55:36;99847.00;;;17.00
71564;BMP180;59391;52.504;13.438;2023-04-24T04:58:02;99830.00;;;17.00
71564;BMP180;59391;52.504;13.438;2023-04-24T05:00:28;99855.00;;;17.00
71564;BMP180;59391;52.504;13.438;2023-04-24T05:03:01;99849.00;;;16.90
71564;BMP180;59391;52.504;13.438;2023-04-24T05:05:27;99842.00;;;16.90
71564;BMP180;59391;52.504;13.438;2023-04-24T05:07:52;99846.00;;;16.90
71564;BMP180;59391;52.504;13.438;2023-04-24T05:10:18;99853.00;;;16.80
71564;BMP180;59391;52.504;13.438;2023-04-24T05:12:44;99845.00;;;16.80
71564;BMP180;59391;52.504;13.438;2023-04-24T05:15:10;99849.00;;;16.80
71564;BMP180;59391;52.504;13.438;2023-04-24T05:17:36;99855.00;;;16.80
71564;BMP180;59391;52.504;13.438;2023-04-24T05:20:03;99852.00;;;16.80
71564;BMP180;59391;52.504;13.438;2023-04-24T05:22:31;99853.00;;;16.80
71564;BMP180;59391;52.504;13.438;2023-04-24T05:24:57;99844.00;;;16.70
71564;BMP180;59391;52.504;13.438;2023-04-24T05:27:22;99851.00;;;16.70
71564;BMP180;59391;52.504;13.438;2023-04-24T05:29:48;99852.00;;;16.70
71564;BMP180;59391;52.504;13.438;2023-04-24T05:32:14;99852.00;;;16.70
71564;BMP180;59391;52.504;13.438;2023-04-24T05:34:39;99864.00;;;16.70
71564;BMP180;59391;52.504;13.438;2023-04-24T05:37:05;99861.00;;;16.70
71564;BMP180;59391;52.504;13.438;2023-04-24T05:39:34;99859.00;;;16.70
71564;BMP180;59391;52.504;13.438;2023-04-24T05:42:00;99861.00;;;16.70
71564;BMP180;59391;52.504;13.438;2023-04-24T05:44:27;99857.00;;;16.70
71564;BMP180;59391;52.504;13.438;2023-04-24T05:46:52;99867.00;;;16.70
71564;BMP180;59391;52.504;13.438;2023-04-24T05:49:18;99870.00;;;16.60
71564;BMP180;59391;52.504;13.438;2023-04-24T05:51:44;99857.00;;;16.60
71564;BMP180;59391;52.504;13.438;2023-04-24T05:54:10;99863.00;;;16.60
71564;BMP180;59391;52.504;13.438;2023-04-24T05:56:37;99857.00;;;16.70
71564;BMP180;59391;52.504;13.438;2023-04-24T05:59:03;99865.00;;;16.70
71564;BMP180;59391;52.504;13.438;2023-04-24T06:01:29;99858.00;;;16.80
71564;BMP180;59391;52.504;13.438;2023-04-24T06:03:55;99879.00;;;16.60
71564;BMP180;59391;52.504;13.438;2023-04-24T06:06:21;99879.00;;;16.70
71564;BMP180;59391;52.504;13.438;2023-04-24T06:08:46;99867.00;;;16.70
71564;BMP180;59391;52.504;13.438;2023-04-24T06:11:12;99879.00;;;16.80
71564;BMP180;59391;52.504;13.438;2023-04-24T06:13:37;99865.00;;;16.90
71564;BMP180;59391;52.504;13.438;2023-04-24T06:16:04;99885.00;;;16.90
71564;BMP180;59391;52.504;13.438;2023-04-24T06:18:29;99886.00;;;17.00
71564;BMP180;59391;52.504;13.438;2023-04-24T06:20:55;99886.00;;;17.00
71564;BMP180;59391;52.504;13.438;2023-04-24T06:23:21;99882.00;;;17.00
71564;BMP180;59391;52.504;13.438;2023-04-24T06:25:47;99873.00;;;17.00
71564;BMP180;59391;52.504;13.438;2023-04-24T06:28:12;99876.00;;;17.00
71564;BMP180;59391;52.504;13.438;2023-04-24T06:30:38;99883.00;;;17.10
71564;BMP180;59391;52.504;13.438;2023-04-24T06:33:04;99878.00;;;17.00
71564;BMP180;59391;52.504;13.438;2023-04-24T06:35:29;99876.00;;;17.10
71564;BMP180;59391;52.504;13.438;2023-04-24T06:37:55;99878.00;;;17.10
71564;BMP180;59391;52.504;13.438;2023-04-24T06:40:22;99879.00;;;17.10
71564;BMP180;59391;52.504;13.438;2023-04-24T06:42:47;99886.00;;;17.30
71564;BMP180;59391;52.504;13.438;2023-04-24T06:45:13;99893.00;;;17.30
71564;BMP180;59391;52.504;13.438;2023-04-24T06:47:39;99899.00;;;17.30
71564;BMP180;59391;52.504;13.438;2023-04-24T06:50:05;99898.00;;;17.40
71564;BMP180;59391;52.504;13.438;2023-04-24T06:52:31;99885.00;;;17.50
71564;BMP180;59391;52.504;13.438;2023-04-24T06:55:03;99878.00;;;17.60
71564;BMP180;59391;52.504;13.438;2023-04-24T06:57:29;99881.00;;;17.80
71564;BMP180;59391;52.504;13.438;2023-04-24T06:59:55;99885.00;;;18.00
71564;BMP180;59391;52.504;13.438;2023-04-24T07:02:21;99871.00;;;18.10
71564;BMP180;59391;52.504;13.438;2023-04-24T07:04:47;99871.00;;;18.30
71564;BMP180;59391;52.504;13.438;2023-04-24T07:07:13;99872.00;;;18.40
71564;BMP180;59391;52.504;13.438;2023-04-24T07:09:42;99871.00;;;18.50
71564;BMP180;59391;52.504;13.438;2023-04-24T07:12:08;99873.00;;;18.60
71564;BMP180;59391;52.504;13.438;2023-04-24T07:14:36;99876.00;;;18.60
71564;BMP180;59391;52.504;13.438;2023-04-24T07:17:06;99872.00;;;18.60
71564;BMP180;59391;52.504;13.438;2023-04-24T07:19:33;99880.00;;;18.70
71564;BMP180;59391;52.504;13.438;2023-04-24T07:22:01;99873.00;;;18.80
71564;BMP180;59391;52.504;13.438;2023-04-24T07:24:29;99866.00;;;18.70
71564;BMP180;59391;52.504;13.438;2023-04-24T07:26:54;99876.00;;;18.90
71564;BMP180;59391;52.504;13.438;2023-04-24T07:29:20;99872.00;;;19.00
71564;BMP180;59391;52.504;13.438;2023-04-24T07:31:46;99876.00;;;19.10
71564;BMP180;59391;52.504;13.438;2023-04-24T07:34:12;99884.00;;;19.30
71564;BMP180;59391;52.504;13.438;2023-04-24T07:36:38;99883.00;;;19.40
71564;BMP180;59391;52.504;13.438;2023-04-24T07:39:05;99879.00;;;19.50
71564;BMP180;59391;52.504;13.438;2023-04-24T07:41:31;99881.00;;;19.50
71564;BMP180;59391;52.504;13.438;2023-04-24T07:43:56;99870.00;;;19.60
71564;BMP180;59391;52.504;13.438;2023-04-24T07:46:22;99873.00;;;19.60
71564;BMP180;59391;52.504;13.438;2023-04-24T07:48:49;99876.00;;;19.70
71564;BMP180;59391;52.504;13.438;2023-04-24T07:51:15;99869.00;;;19.70
71564;BMP180;59391;52.504;13.438;2023-04-24T07:53:42;99868.00;;;19.60
71564;BMP180;59391;52.504;13.438;2023-04-24T07:56:08;99867.00;;;19.60
71564;BMP180;59391;52.504;13.438;2023-04-24T07:58:34;99863.00;;;19.60
71564;BMP180;59391;52.504;13.438;2023-04-24T08:00:59;99875.00;;;19.70
71564;BMP180;59391;52.504;13.438;2023-04-24T08:03:25;99882.00;;;19.70
71564;BMP180;59391;52.504;13.438;2023-04-24T08:05:51;99870.00;;;19.70
71564;BMP180;59391;52.504;13.438;2023-04-24T08:08:17;99865.00;;;19.80
71564;BMP180;59391;52.504;13.438;2023-04-24T08:10:42;99871.00;;;19.90
71564;BMP180;59391;52.504;13.438;2023-04-24T08:13:08;99861.00;;;20.10
71564;BMP180;59391;52.504;13.438;2023-04-24T08:15:34;99861.00;;;20.10
71564;BMP180;59391;52.504;13.438;2023-04-24T08:18:00;99875.00;;;20.20
71564;BMP180;59391;52.504;13.438;2023-04-24T08:20:26;99874.00;;;20.20
71564;BMP180;59391;52.504;13.438;2023-04-24T08:22:51;99875.00;;;20.30
71564;BMP180;59391;52.504;13.438;2023-04-24T08:25:17;99868.00;;;20.50
71564;BMP180;59391;52.504;13.438;2023-04-24T08:27:47;99873.00;;;20.80
71564;BMP180;59391;52.504;13.438;2023-04-24T08:30:12;99873.00;;;21.10
71564;BMP180;59391;52.504;13.438;2023-04-24T08:32:38;99869.00;;;21.70
71564;BMP180;59391;52.504;13.438;2023-04-24T08:35:04;99862.00;;;22.30
71564;BMP180;59391;52.504;13.438;2023-04-24T08:37:30;99867.00;;;22.60
71564;BMP180;59391;52.504;13.438;2023-04-24T08:39:56;99870.00;;;22.90
71564;BMP180;59391;52.504;13.438;2023-04-24T08:42:22;99867.00;;;23.10
71564;BMP180;59391;52.504;13.438;2023-04-24T08:44:49;99871.00;;;22.80
71564;BMP180;59391;52.504;13.438;2023-04-24T08:47:16;99872.00;;;22.50
71564;BMP180;59391;52.504;13.438;2023-04-24T08:49:43;99867.00;;;22.50
71564;BMP180;59391;52.504;13.438;2023-04-24T08:52:12;99870.00;;;22.90
71564;BMP180;59391;52.504;13.438;2023-04-24T08:54:40;99880.00;;;23.10
71564;BMP180;59391;52.504;13.438;2023-04-24T08:57:09;99869.00;;;23.20
71564;BMP180;59391;52.504;13.438;2023-04-24T08:59:38;99880.00;;;23.70
71564;BMP180;59391;52.504;13.438;2023-04-24T09:02:04;99872.00;;;24.10
71564;BMP180;59391;52.504;13.438;2023-04-24T09:04:32;99867.00;;;24.10
71564;BMP180;59391;52.504;13.438;2023-04-24T09:06:59;99877.00;;;24.00
71564;BMP180;59391;52.504;13.438;2023-04-24T09:09:25;99870.00;;;24.10
71564;BMP180;59391;52.504;13.438;2023-04-24T09:11:52;99884.00;;;23.90
71564;BMP180;59391;52.504;13.438;2023-04-24T09:14:21;99883.00;;;23.80
71564;BMP180;59391;52.504;13.438;2023-04-24T09:16:49;99884.00;;;23.50
71564;BMP180;59391;52.504;13.438;2023-04-24T09:19:15;99893.00;;;23.20
71564;BMP180;59391;52.504;13.438;2023-04-24T09:21:45;99883.00;;;22.70
71564;BMP180;59391;52.504;13.438;2023-04-24T09:24:19;99892.00;;;22.30
71564;BMP180;59391;52.504;13.438;2023-04-24T09:26:48;99882.00;;;22.10
71564;BMP180;59391;52.504;13.438;2023-04-24T09:29:18;99883.00;;;22.10
71564;BMP180;59391;52.504;13.438;2023-04-24T09:31:45;99889.00;;;22.20
71564;BMP180;59391;52.504;13.438;2023-04-24T09:34:11;99889.00;;;22.10
71564;BMP180;59391;52.504;13.438;2023-04-24T09:36:40;99889.00;;;21.90
71564;BMP180;59391;52.504;13.438;2023-04-24T09:39:12;99904.00;;;21.80
71564;BMP180;59391;52.504;13.438;2023-04-24T09:41:55;99895.00;;;21.70
71564;BMP180;59391;52.504;13.438;2023-04-24T09:44:28;99898.00;;;21.60
71564;BMP180;59391;52.504;13.438;2023-04-24T09:46:59;99901.00;;;21.50
71564;BMP180;59391;52.504;13.438;2023-04-24T09:49:29;99906.00;;;21.40
71564;BMP180;59391;52.504;13.438;2023-04-24T09:52:10;99899.00;;;21.20
71564;BMP180;59391;52.504;13.438;2023-04-24T09:54:36;99898.00;;;21.20
71564;BMP180;59391;52.504;13.438;2023-04-24T09:57:03;99901.00;;;21.20
71564;BMP180;59391;52.504;13.438;2023-04-24T09:59:30;99900.00;;;21.00
71564;BMP180;59391;52.504;13.438;2023-04-24T10:01:55;99893.00;;;21.10
71564;BMP180;59391;52.504;13.438;2023-04-24T10:04:24;99885.00;;;21.20
71564;BMP180;59391;52.504;13.438;2023-04-24T10:06:53;99889.00;;;21.20
71564;BMP180;59391;52.504;13.438;2023-04-24T10:09:22;99883.00;;;21.30
71564;BMP180;59391;52.504;13.438;2023-04-24T10:11:53;99881.00;;;21.20
71564;BMP180;59391;52.504;13.438;2023-04-24T10:14:23;99880.00;;;21.50
71564;BMP180;59391;52.504;13.438;2023-04-24T10:16:53;99887.00;;;21.80
71564;BMP180;59391;52.504;13.438;2023-04-24T10:19:18;99882.00;;;21.90
71564;BMP180;59391;52.504;13.438;2023-04-24T10:21:44;99894.00;;;22.00
71564;BMP180;59391;52.504;13.438;2023-04-24T10:24:18;99875.00;;;22.20
71564;BMP180;59391;52.504;13.438;2023-04-24T10:26:46;99887.00;;;22.50
71564;BMP180;59391;52.504;13.438;2023-04-24T10:29:18;99881.00;;;22.80
71564;BMP180;59391;52.504;13.438;2023-04-24T10:31:44;99880.00;;;22.90
71564;BMP180;59391;52.504;13.438;2023-04-24T10:34:16;99897.00;;;22.90
71564;BMP180;59391;52.504;13.438;2023-04-24T10:36:51;99885.00;;;22.50
71564;BMP180;59391;52.504;13.438;2023-04-24T10:39:18;99886.00;;;22.30
71564;BMP180;59391;52.504;13.438;2023-04-24T10:41:44;99888.00;;;22.20
71564;BMP180;59391;52.504;13.438;2023-04-24T10:44:14;99879.00;;;21.90
71564;BMP180;59391;52.504;13.438;2023-04-24T10:46:46;99881.00;;;21.80
71564;BMP180;59391;52.504;13.438;2023-04-24T10:49:13;99882.00;;;21.70
71564;BMP180;59391;52.504;13.438;2023-04-24T10:51:54;99890.00;;;21.40
71564;BMP180;59391;52.504;13.438;2023-04-24T10:54:34;99883.00;;;21.30
71564;BMP180;59391;52.504;13.438;2023-04-24T11:00:10;99876.00;;;21.00
71564;BMP180;59391;52.504;13.438;2023-04-24T11:02:40;99875.00;;;21.00
71564;BMP180;59391;52.504;13.438;2023-04-24T11:05:15;99870.00;;;21.00
71564;BMP180;59391;52.504;13.438;2023-04-24T11:08:21;99871.00;;;21.10
71564;BMP180;59391;52.504;13.438;2023-04-24T11:10:56;99877.00;;;21.30
71564;BMP180;59391;52.504;13.438;2023-04-24T11:13:24;99879.00;;;21.80
71564;BMP180;59391;52.504;13.438;2023-04-24T11:16:14;99881.00;;;22.70
71564;BMP180;59391;52.504;13.438;2023-04-24T11:18:42;99877.00;;;23.40
71564;BMP180;59391;52.504;13.438;2023-04-24T11:21:17;99889.00;;;23.50
71564;BMP180;59391;52.504;13.438;2023-04-24T11:23:44;99871.00;;;23.30
71564;BMP180;59391;52.504;13.438;2023-04-24T11:26:18;99867.00;;;23.10
71564;BMP180;59391;52.504;13.438;2023-04-24T11:28:46;99865.00;;;23.00
71564;BMP180;59391;52.504;13.438;2023-04-24T11:31:39;99871.00;;;22.70
71564;BMP180;59391;52.504;13.438;2023-04-24T11:34:10;99877.00;;;22.40
71564;BMP180;59391;52.504;13.438;2023-04-24T11:36:38;99870.00;;;22.30
71564;BMP180;59391;52.504;13.438;2023-04-24T11:39:04;99900.00;;;21.70
71564;BMP180;59391;52.504;13.438;2023-04-24T11:41:30;99908.00;;;21.20
71564;BMP180;59391;52.504;13.438;2023-04-24T11:43:57;99911.00;;;20.80
71564;BMP180;59391;52.504;13.438;2023-04-24T11:46:27;99898.00;;;20.40
71564;BMP180;59391;52.504;13.438;2023-04-24T11:48:53;99905.00;;;20.60
71564;BMP180;59391;52.504;13.438;2023-04-24T11:51:18;99896.00;;;20.80
71564;BMP180;59391;52.504;13.438;2023-04-24T11:53:44;99895.00;;;21.00
71564;BMP180;59391;52.504;13.438;2023-04-24T11:56:10;99892.00;;;21.20
71564;BMP180;59391;52.504;13.438;2023-04-24T11:58:38;99895.00;;;21.40
71564;BMP180;59391;52.504;13.438;2023-04-24T12:01:05;99895.00;;;21.70
71564;BMP180;59391;52.504;13.438;2023-04-24T12:03:31;99883.00;;;22.10
71564;BMP180;59391;52.504;13.438;2023-04-24T12:06:09;99881.00;;;21.90
71564;BMP180;59391;52.504;13.438;2023-04-24T12:08:35;99880.00;;;22.20
71564;BMP180;59391;52.504;13.438;2023-04-24T12:11:03;99876.00;;;22.70
71564;BMP180;59391;52.504;13.438;2023-04-24T12:13:30;99890.00;;;23.30
71564;BMP180;59391;52.504;13.438;2023-04-24T12:15:57;99886.00;;;23.60
71564;BMP180;59391;52.504;13.438;2023-04-24T12:18:23;99878.00;;;23.70
71564;BMP180;59391;52.504;13.438;2023-04-24T12:20:49;99875.00;;;23.90
71564;BMP180;59391;52.504;13.438;2023-04-24T12:23:15;99872.00;;;24.20
71564;BMP180;59391;52.504;13.438;2023-04-24T12:25:41;99863.00;;;24.50
71564;BMP180;59391;52.504;13.438;2023-04-24T12:28:12;99858.00;;;24.90
71564;BMP180;59391;52.504;13.438;2023-04-24T12:30:45;99852.00;;;24.70
71564;BMP180;59391;52.504;13.438;2023-04-24T12:33:21;99846.00;;;24.60
71564;BMP180;59391;52.504;13.438;2023-04-24T12:35:51;99859.00;;;24.70
71564;BMP180;59391;52.504;13.438;2023-04-24T12:38:23;99853.00;;;24.50
71564;BMP180;59391;52.504;13.438;2023-04-24T12:41:07;99848.00;;;24.10
71564;BMP180;59391;52.504;13.438;2023-04-24T12:43:33;99859.00;;;23.80
71564;BMP180;59391;52.504;13.438;2023-04-24T12:45:59;99847.00;;;23.50
71564;BMP180;59391;52.504;13.438;2023-04-24T12:48:28;99857.00;;;23.10
71564;BMP180;59391;52.504;13.438;2023-04-24T12:50:58;99860.00;;;22.60
71564;BMP180;59391;52.504;13.438;2023-04-24T12:53:27;99842.00;;;22.00
71564;BMP180;59391;52.504;13.438;2023-04-24T12:55:55;99839.00;;;22.30
71564;BMP180;59391;52.504;13.438;2023-04-24T12:58:21;99835.00;;;22.40
71564;BMP180;59391;52.504;13.438;2023-04-24T13:00:47;99845.00;;;22.80
71564;BMP180;59391;52.504;13.438;2023-04-24T13:03:13;99846.00;;;22.50
71564;BMP180;59391;52.504;13.438;2023-04-24T13:05:39;99844.00;;;22.60
71564;BMP180;59391;52.504;13.438;2023-04-24T13:08:05;99841.00;;;22.30
71564;BMP180;59391;52.504;13.438;2023-04-24T13:10:31;99867.00;;;22.30
71564;BMP180;59391;52.504;13.438;2023-04-24T13:12:57;99793.00;;;22.20
71564;BMP180;59391;52.504;13.438;2023-04-24T13:15:23;99840.00;;;22.40
71564;BMP180;59391;52.504;13.438;2023-04-24T13:17:50;99848.00;;;22.20
71564;BMP180;59391;52.504;13.438;2023-04-24T13:20:16;99860.00;;;22.10
71564;BMP180;59391;52.504;13.438;2023-04-24T13:22:42;99828.00;;;22.10
71564;BMP180;59391;52.504;13.438;2023-04-24T13:25:08;99862.00;;;22.10
71564;BMP180;59391;52.504;13.438;2023-04-24T13:27:34;99824.00;;;22.30
71564;BMP180;59391;52.504;13.438;2023-04-24T13:30:00;99830.00;;;22.60
71564;BMP180;59391;52.504;13.438;2023-04-24T13:32:25;99840.00;;;23.00
71564;BMP180;59391;52.504;13.438;2023-04-24T13:34:53;99833.00;;;23.30
71564;BMP180;59391;52.504;13.438;2023-04-24T13:37:18;99840.00;;;23.10
71564;BMP180;59391;52.504;13.438;2023-04-24T13:39:44;99844.00;;;22.90
71564;BMP180;59391;52.504;13.438;2023-04-24T13:42:09;99834.00;;;22.70
71564;BMP180;59391;52.504;13.438;2023-04-24T13:44:39;99807.00;;;22.90
71564;BMP180;59391;52.504;13.438;2023-04-24T13:47:05;99840.00;;;23.10
71564;BMP180;59391;52.504;13.438;2023-04-24T13:49:31;99818.00;;;23.40
71564;BMP180;59391;52.504;13.438;2023-04-24T13:51:57;99842.00;;;23.20
71564;BMP180;59391;52.504;13.438;2023-04-24T13:54:23;99822.00;;;23.40
71564;BMP180;59391;52.504;13.438;2023-04-24T13:56:51;99829.00;;;23.40
71564;BMP180;59391;52.504;13.438;2023-04-24T13:59:17;99834.00;;;23.50